sensor_id;sensor_type;location;lat;lon;timestamp;temperature;humidity
69626;DHT22;56847;51.984;5.088;2022-12-20T00:01:58;11.20;80.50
69626;DHT22;56847;51.984;5.088;2022-12-20T00:04:25;11.30;80.40
69626;DHT22;56847;51.984;5.088;2022-12-20T00:06:56;11.30;80.20
69626;DHT22;56847;51.984;5.088;2022-12-20T00:09:36;11.40;80.10
69626;DHT22;56847;51.984;5.088;2022-12-20T00:12:04;11.40;80.10
69626;DHT22;56847;51.984;5.088;2022-12-20T00:14:34;11.40;79.90
69626;DHT22;56847;51.984;5.088;2022-12-20T00:17:01;11.50;80.00
69626;DHT22;56847;51.984;5.088;2022-12-20T00:19:29;11.50;80.00
69626;DHT22;56847;51.984;5.088;2022-12-20T00:21:56;11.60;79.70
69626;DHT22;56847;51.984;5.088;2022-12-20T00:24:24;11.60;79.80
69626;DHT22;56847;51.984;5.088;2022-12-20T00:26:54;11.60;79.50
69626;DHT22;56847;51.984;5.088;2022-12-20T00:29:24;11.60;79.30
69626;DHT22;56847;51.984;5.088;2022-12-20T00:31:52;11.70;79.30
69626;DHT22;56847;51.984;5.088;2022-12-20T00:34:20;11.70;79.00
69626;DHT22;56847;51.984;5.088;2022-12-20T00:36:47;11.70;79.00
69626;DHT22;56847;51.984;5.088;2022-12-20T00:39:17;11.80;78.90
69626;DHT22;56847;51.984;5.088;2022-12-20T00:41:45;11.70;78.80
69626;DHT22;56847;51.984;5.088;2022-12-20T00:44:13;11.80;79.00
69626;DHT22;56847;51.984;5.088;2022-12-20T00:46:40;11.80;78.80
69626;DHT22;56847;51.984;5.088;2022-12-20T00:49:08;11.80;78.90
69626;DHT22;56847;51.984;5.088;2022-12-20T00:51:36;11.80;79.00
69626;DHT22;56847;51.984;5.088;2022-12-20T00:54:06;11.90;78.80
69626;DHT22;56847;51.984;5.088;2022-12-20T00:56:36;11.90;78.60
69626;DHT22;56847;51.984;5.088;2022-12-20T00:59:05;11.90;78.60
69626;DHT22;56847;51.984;5.088;2022-12-20T01:01:36;11.90;78.80
69626;DHT22;56847;51.984;5.088;2022-12-20T01:04:09;11.90;78.80
69626;DHT22;56847;51.984;5.088;2022-12-20T01:06:36;11.90;78.80
69626;DHT22;56847;51.984;5.088;2022-12-20T01:09:05;11.90;79.00
69626;DHT22;56847;51.984;5.088;2022-12-20T01:11:37;11.90;79.00
69626;DHT22;56847;51.984;5.088;2022-12-20T01:14:12;11.90;78.80
69626;DHT22;56847;51.984;5.088;2022-12-20T01:16:44;11.80;79.10
69626;DHT22;56847;51.984;5.088;2022-12-20T01:19:21;11.80;79.40
69626;DHT22;56847;51.984;5.088;2022-12-20T01:21:51;11.70;79.70
69626;DHT22;56847;51.984;5.088;2022-12-20T01:24:22;11.60;80.00
69626;DHT22;56847;51.984;5.088;2022-12-20T01:26:51;11.60;80.40
69626;DHT22;56847;51.984;5.088;2022-12-20T01:29:19;11.60;80.60
69626;DHT22;56847;51.984;5.088;2022-12-20T01:31:48;11.60;80.80
69626;DHT22;56847;51.984;5.088;2022-12-20T01:34:16;11.50;81.00
69626;DHT22;56847;51.984;5.088;2022-12-20T01:36:44;11.50;81.20
69626;DHT22;56847;51.984;5.088;2022-12-20T01:39:18;11.50;81.40
69626;DHT22;56847;51.984;5.088;2022-12-20T01:41:47;11.50;81.40
69626;DHT22;56847;51.984;5.088;2022-12-20T01:46:50;11.50;81.60
69626;DHT22;56847;51.984;5.088;2022-12-20T01:49:33;11.50;81.80
69626;DHT22;56847;51.984;5.088;2022-12-20T01:52:11;11.50;81.90
69626;DHT22;56847;51.984;5.088;2022-12-20T01:54:47;11.50;81.90
69626;DHT22;56847;51.984;5.088;2022-12-20T01:57:46;11.50;82.00
69626;DHT22;56847;51.984;5.088;2022-12-20T02:00:17;11.50;82.00
69626;DHT22;56847;51.984;5.088;2022-12-20T02:02:47;11.50;82.20
69626;DHT22;56847;51.984;5.088;2022-12-20T02:05:20;11.50;82.20
69626;DHT22;56847;51.984;5.088;2022-12-20T02:07:54;11.50;82.40
69626;DHT22;56847;51.984;5.088;2022-12-20T02:11:07;11.50;82.40
69626;DHT22;56847;51.984;5.088;2022-12-20T02:16:27;11.50;82.80
69626;DHT22;56847;51.984;5.088;2022-12-20T02:27:45;11.60;83.20
69626;DHT22;56847;51.984;5.088;2022-12-20T02:30:21;11.50;83.30
69626;DHT22;56847;51.984;5.088;2022-12-20T02:33:13;11.60;83.40
69626;DHT22;56847;51.984;5.088;2022-12-20T02:35:41;11.60;83.40
69626;DHT22;56847;51.984;5.088;2022-12-20T02:38:32;11.60;83.40
69626;DHT22;56847;51.984;5.088;2022-12-20T02:41:23;11.60;83.20
69626;DHT22;56847;51.984;5.088;2022-12-20T02:44:01;11.60;83.30
69626;DHT22;56847;51.984;5.088;2022-12-20T02:46:48;11.60;83.30
69626;DHT22;56847;51.984;5.088;2022-12-20T02:49:19;11.60;83.30
69626;DHT22;56847;51.984;5.088;2022-12-20T02:51:50;11.60;83.20
69626;DHT22;56847;51.984;5.088;2022-12-20T02:54:18;11.60;83.10
69626;DHT22;56847;51.984;5.088;2022-12-20T02:57:04;11.50;83.10
69626;DHT22;56847;51.984;5.088;2022-12-20T03:00:01;11.50;83.30
69626;DHT22;56847;51.984;5.088;2022-12-20T03:02:36;11.50;83.20
69626;DHT22;56847;51.984;5.088;2022-12-20T03:05:24;11.50;83.30
69626;DHT22;56847;51.984;5.088;2022-12-20T03:07:52;11.50;83.30
69626;DHT22;56847;51.984;5.088;2022-12-20T03:10:22;11.50;83.30
69626;DHT22;56847;51.984;5.088;2022-12-20T03:12:51;11.50;83.50
69626;DHT22;56847;51.984;5.088;2022-12-20T03:15:18;11.50;83.40
69626;DHT22;56847;51.984;5.088;2022-12-20T03:17:52;11.50;83.40
69626;DHT22;56847;51.984;5.088;2022-12-20T03:20:20;11.50;83.40
69626;DHT22;56847;51.984;5.088;2022-12-20T03:22:47;11.50;83.40
69626;DHT22;56847;51.984;5.088;2022-12-20T03:25:21;11.50;83.40
69626;DHT22;56847;51.984;5.088;2022-12-20T03:27:51;11.50;83.50
69626;DHT22;56847;51.984;5.088;2022-12-20T03:30:20;11.60;83.60
69626;DHT22;56847;51.984;5.088;2022-12-20T03:32:51;11.60;83.60
69626;DHT22;56847;51.984;5.088;2022-12-20T03:35:19;11.60;83.40
69626;DHT22;56847;51.984;5.088;2022-12-20T03:37:47;11.60;83.50
69626;DHT22;56847;51.984;5.088;2022-12-20T03:40:18;11.70;83.30
69626;DHT22;56847;51.984;5.088;2022-12-20T03:42:47;11.70;83.50
69626;DHT22;56847;51.984;5.088;2022-12-20T03:45:14;11.70;83.50
69626;DHT22;56847;51.984;5.088;2022-12-20T03:47:42;11.80;83.60
69626;DHT22;56847;51.984;5.088;2022-12-20T03:50:10;11.80;83.60
69626;DHT22;56847;51.984;5.088;2022-12-20T03:52:38;11.80;83.40
69626;DHT22;56847;51.984;5.088;2022-12-20T03:55:07;11.80;83.30
69626;DHT22;56847;51.984;5.088;2022-12-20T03:57:39;11.90;83.40
69626;DHT22;56847;51.984;5.088;2022-12-20T04:00:18;11.90;83.30
69626;DHT22;56847;51.984;5.088;2022-12-20T04:02:54;12.00;83.20
69626;DHT22;56847;51.984;5.088;2022-12-20T04:05:23;12.00;83.00
69626;DHT22;56847;51.984;5.088;2022-12-20T04:07:51;12.00;82.80
69626;DHT22;56847;51.984;5.088;2022-12-20T04:10:24;12.00;82.80
69626;DHT22;56847;51.984;5.088;2022-12-20T04:12:52;12.00;82.80
69626;DHT22;56847;51.984;5.088;2022-12-20T04:15:20;12.00;83.00
69626;DHT22;56847;51.984;5.088;2022-12-20T04:17:48;12.10;83.10
69626;DHT22;56847;51.984;5.088;2022-12-20T04:20:19;12.10;83.00
69626;DHT22;56847;51.984;5.088;2022-12-20T04:23:07;12.10;82.80
69626;DHT22;56847;51.984;5.088;2022-12-20T04:25:35;12.20;82.80
69626;DHT22;56847;51.984;5.088;2022-12-20T04:28:06;12.20;82.90
69626;DHT22;56847;51.984;5.088;2022-12-20T04:30:34;12.20;82.80
69626;DHT22;56847;51.984;5.088;2022-12-20T04:33:02;12.20;82.70
69626;DHT22;56847;51.984;5.088;2022-12-20T04:35:31;12.20;82.60
69626;DHT22;56847;51.984;5.088;2022-12-20T04:38:04;12.20;82.60
69626;DHT22;56847;51.984;5.088;2022-12-20T04:40:35;12.20;82.70
69626;DHT22;56847;51.984;5.088;2022-12-20T04:43:06;12.10;82.90
69626;DHT22;56847;51.984;5.088;2022-12-20T04:45:37;12.10;83.20
69626;DHT22;56847;51.984;5.088;2022-12-20T04:48:05;12.00;83.30
69626;DHT22;56847;51.984;5.088;2022-12-20T04:50:54;12.00;83.60
69626;DHT22;56847;51.984;5.088;2022-12-20T04:53:26;12.00;83.70
69626;DHT22;56847;51.984;5.088;2022-12-20T04:56:30;12.00;84.00
69626;DHT22;56847;51.984;5.088;2022-12-20T04:59:07;12.00;84.10
69626;DHT22;56847;51.984;5.088;2022-12-20T05:01:35;12.00;84.30
69626;DHT22;56847;51.984;5.088;2022-12-20T05:04:11;12.00;84.40
69626;DHT22;56847;51.984;5.088;2022-12-20T05:06:42;12.00;84.40
69626;DHT22;56847;51.984;5.088;2022-12-20T05:09:10;12.10;84.50
69626;DHT22;56847;51.984;5.088;2022-12-20T05:11:38;12.10;84.30
69626;DHT22;56847;51.984;5.088;2022-12-20T05:14:07;12.10;84.40
69626;DHT22;56847;51.984;5.088;2022-12-20T05:16:39;12.10;84.40
69626;DHT22;56847;51.984;5.088;2022-12-20T05:19:10;12.10;84.50
69626;DHT22;56847;51.984;5.088;2022-12-20T05:21:40;12.10;84.50
69626;DHT22;56847;51.984;5.088;2022-12-20T05:24:26;12.10;84.40
69626;DHT22;56847;51.984;5.088;2022-12-20T05:27:25;12.10;84.30
69626;DHT22;56847;51.984;5.088;2022-12-20T05:29:56;12.10;84.40
69626;DHT22;56847;51.984;5.088;2022-12-20T05:32:29;12.10;84.50
69626;DHT22;56847;51.984;5.088;2022-12-20T05:34:59;12.10;84.50
69626;DHT22;56847;51.984;5.088;2022-12-20T05:37:29;12.10;84.60
69626;DHT22;56847;51.984;5.088;2022-12-20T05:40:15;12.20;84.60
69626;DHT22;56847;51.984;5.088;2022-12-20T05:42:43;12.20;84.50
69626;DHT22;56847;51.984;5.088;2022-12-20T05:45:12;12.20;84.30
69626;DHT22;56847;51.984;5.088;2022-12-20T05:47:48;12.20;84.40
69626;DHT22;56847;51.984;5.088;2022-12-20T05:50:25;12.20;84.30
69626;DHT22;56847;51.984;5.088;2022-12-20T05:53:23;12.30;84.40
69626;DHT22;56847;51.984;5.088;2022-12-20T05:55:53;12.30;84.30
69626;DHT22;56847;51.984;5.088;2022-12-20T05:58:36;12.30;84.30
69626;DHT22;56847;51.984;5.088;2022-12-20T06:01:08;12.30;84.40
69626;DHT22;56847;51.984;5.088;2022-12-20T06:08:13;12.40;84.30
69626;DHT22;56847;51.984;5.088;2022-12-20T06:10:41;12.40;84.10
69626;DHT22;56847;51.984;5.088;2022-12-20T06:13:09;12.30;84.10
69626;DHT22;56847;51.984;5.088;2022-12-20T06:15:39;12.40;84.20
69626;DHT22;56847;51.984;5.088;2022-12-20T06:18:06;12.40;84.00
69626;DHT22;56847;51.984;5.088;2022-12-20T06:20:34;12.40;83.90
69626;DHT22;56847;51.984;5.088;2022-12-20T06:23:23;12.40;83.90
69626;DHT22;56847;51.984;5.088;2022-12-20T06:26:37;12.50;83.80
69626;DHT22;56847;51.984;5.088;2022-12-20T06:29:06;12.50;83.40
69626;DHT22;56847;51.984;5.088;2022-12-20T06:31:43;12.40;83.40
69626;DHT22;56847;51.984;5.088;2022-12-20T06:34:14;12.40;83.50
69626;DHT22;56847;51.984;5.088;2022-12-20T06:36:47;12.40;83.50
69626;DHT22;56847;51.984;5.088;2022-12-20T06:39:21;12.40;83.20
69626;DHT22;56847;51.984;5.088;2022-12-20T06:42:19;12.40;83.20
69626;DHT22;56847;51.984;5.088;2022-12-20T06:44:58;12.40;83.10
69626;DHT22;56847;51.984;5.088;2022-12-20T06:47:25;12.40;83.20
69626;DHT22;56847;51.984;5.088;2022-12-20T06:50:00;12.40;83.20
69626;DHT22;56847;51.984;5.088;2022-12-20T06:52:31;12.40;83.30
69626;DHT22;56847;51.984;5.088;2022-12-20T06:55:01;12.50;83.10
69626;DHT22;56847;51.984;5.088;2022-12-20T06:57:35;12.50;83.20
69626;DHT22;56847;51.984;5.088;2022-12-20T07:00:04;12.50;83.00
69626;DHT22;56847;51.984;5.088;2022-12-20T07:02:34;12.50;83.00
69626;DHT22;56847;51.984;5.088;2022-12-20T07:05:02;12.50;82.90
69626;DHT22;56847;51.984;5.088;2022-12-20T07:07:30;12.60;82.90
69626;DHT22;56847;51.984;5.088;2022-12-20T07:10:00;12.60;83.00
69626;DHT22;56847;51.984;5.088;2022-12-20T07:12:34;12.60;82.50
69626;DHT22;56847;51.984;5.088;2022-12-20T07:15:14;12.60;82.10
69626;DHT22;56847;51.984;5.088;2022-12-20T07:17:42;12.60;82.50
69626;DHT22;56847;51.984;5.088;2022-12-20T07:20:13;12.70;82.30
69626;DHT22;56847;51.984;5.088;2022-12-20T07:22:40;12.70;82.40
69626;DHT22;56847;51.984;5.088;2022-12-20T07:25:09;12.70;82.50
69626;DHT22;56847;51.984;5.088;2022-12-20T07:27:40;12.70;82.30
69626;DHT22;56847;51.984;5.088;2022-12-20T07:30:08;12.70;82.20
69626;DHT22;56847;51.984;5.088;2022-12-20T07:32:41;12.70;81.90
69626;DHT22;56847;51.984;5.088;2022-12-20T07:35:10;12.80;81.90
69626;DHT22;56847;51.984;5.088;2022-12-20T07:38:14;12.70;81.80
69626;DHT22;56847;51.984;5.088;2022-12-20T07:40:55;12.80;82.00
69626;DHT22;56847;51.984;5.088;2022-12-20T07:43:40;12.80;81.80
69626;DHT22;56847;51.984;5.088;2022-12-20T07:46:12;12.70;81.70
69626;DHT22;56847;51.984;5.088;2022-12-20T07:48:47;12.70;81.80
69626;DHT22;56847;51.984;5.088;2022-12-20T07:51:22;12.70;81.90
69626;DHT22;56847;51.984;5.088;2022-12-20T07:53:57;12.70;81.70
69626;DHT22;56847;51.984;5.088;2022-12-20T07:56:26;12.70;81.50
69626;DHT22;56847;51.984;5.088;2022-12-20T07:58:56;12.60;81.60
69626;DHT22;56847;51.984;5.088;2022-12-20T08:01:25;12.60;81.60
69626;DHT22;56847;51.984;5.088;2022-12-20T08:04:19;12.60;81.80
69626;DHT22;56847;51.984;5.088;2022-12-20T08:06:50;12.60;81.70
69626;DHT22;56847;51.984;5.088;2022-12-20T08:09:20;12.60;81.80
69626;DHT22;56847;51.984;5.088;2022-12-20T08:11:48;12.60;81.90
69626;DHT22;56847;51.984;5.088;2022-12-20T08:14:37;12.60;82.10
69626;DHT22;56847;51.984;5.088;2022-12-20T08:17:05;12.50;82.10
69626;DHT22;56847;51.984;5.088;2022-12-20T08:19:32;12.50;82.10
69626;DHT22;56847;51.984;5.088;2022-12-20T08:21:59;12.60;82.10
69626;DHT22;56847;51.984;5.088;2022-12-20T08:24:26;12.60;82.00
69626;DHT22;56847;51.984;5.088;2022-12-20T08:26:53;12.60;82.00
69626;DHT22;56847;51.984;5.088;2022-12-20T08:29:20;12.60;81.80
69626;DHT22;56847;51.984;5.088;2022-12-20T08:31:50;12.60;81.90
69626;DHT22;56847;51.984;5.088;2022-12-20T08:34:18;12.60;81.90
69626;DHT22;56847;51.984;5.088;2022-12-20T08:36:45;12.60;81.50
69626;DHT22;56847;51.984;5.088;2022-12-20T08:39:12;12.60;81.70
69626;DHT22;56847;51.984;5.088;2022-12-20T08:41:40;12.60;81.60
69626;DHT22;56847;51.984;5.088;2022-12-20T08:44:08;12.60;81.70
69626;DHT22;56847;51.984;5.088;2022-12-20T08:46:39;12.60;81.50
69626;DHT22;56847;51.984;5.088;2022-12-20T08:49:06;12.60;81.60
69626;DHT22;56847;51.984;5.088;2022-12-20T08:51:33;12.50;81.70
69626;DHT22;56847;51.984;5.088;2022-12-20T08:54:03;12.50;82.00
69626;DHT22;56847;51.984;5.088;2022-12-20T08:56:31;12.50;82.00
69626;DHT22;56847;51.984;5.088;2022-12-20T08:59:02;12.40;82.20
69626;DHT22;56847;51.984;5.088;2022-12-20T09:01:30;12.40;82.40
69626;DHT22;56847;51.984;5.088;2022-12-20T09:04:03;12.40;82.60
69626;DHT22;56847;51.984;5.088;2022-12-20T09:06:33;12.30;82.80
69626;DHT22;56847;51.984;5.088;2022-12-20T09:09:00;12.30;83.00
69626;DHT22;56847;51.984;5.088;2022-12-20T09:11:31;12.30;83.10
69626;DHT22;56847;51.984;5.088;2022-12-20T09:13:59;12.30;83.10
69626;DHT22;56847;51.984;5.088;2022-12-20T09:16:31;12.30;83.30
69626;DHT22;56847;51.984;5.088;2022-12-20T09:19:00;12.30;83.40
69626;DHT22;56847;51.984;5.088;2022-12-20T09:21:33;12.30;83.50
69626;DHT22;56847;51.984;5.088;2022-12-20T09:24:00;12.20;83.70
69626;DHT22;56847;51.984;5.088;2022-12-20T09:26:27;12.30;84.00
69626;DHT22;56847;51.984;5.088;2022-12-20T09:28:55;12.30;84.00
69626;DHT22;56847;51.984;5.088;2022-12-20T09:31:24;12.30;84.10
69626;DHT22;56847;51.984;5.088;2022-12-20T09:33:56;12.30;84.30
69626;DHT22;56847;51.984;5.088;2022-12-20T09:36:28;12.30;84.40
69626;DHT22;56847;51.984;5.088;2022-12-20T09:39:03;12.30;84.50
69626;DHT22;56847;51.984;5.088;2022-12-20T09:41:38;12.30;84.60
69626;DHT22;56847;51.984;5.088;2022-12-20T09:44:17;12.30;84.70
69626;DHT22;56847;51.984;5.088;2022-12-20T09:46:54;12.30;84.80
69626;DHT22;56847;51.984;5.088;2022-12-20T09:49:49;12.30;84.80
69626;DHT22;56847;51.984;5.088;2022-12-20T09:52:34;12.30;84.90
69626;DHT22;56847;51.984;5.088;2022-12-20T09:55:35;12.40;85.00
69626;DHT22;56847;51.984;5.088;2022-12-20T10:01:38;12.40;85.00
69626;DHT22;56847;51.984;5.088;2022-12-20T10:04:31;12.40;84.90
69626;DHT22;56847;51.984;5.088;2022-12-20T10:13:16;12.50;85.00
69626;DHT22;56847;51.984;5.088;2022-12-20T10:16:18;12.50;84.90
69626;DHT22;56847;51.984;5.088;2022-12-20T10:24:01;12.50;85.10
69626;DHT22;56847;51.984;5.088;2022-12-20T10:26:30;12.50;85.20
69626;DHT22;56847;51.984;5.088;2022-12-20T10:28:58;12.50;85.20
69626;DHT22;56847;51.984;5.088;2022-12-20T10:31:26;12.50;85.10
69626;DHT22;56847;51.984;5.088;2022-12-20T10:33:53;12.50;85.20
69626;DHT22;56847;51.984;5.088;2022-12-20T10:36:30;12.50;85.20
69626;DHT22;56847;51.984;5.088;2022-12-20T10:38:59;12.50;85.30
69626;DHT22;56847;51.984;5.088;2022-12-20T10:41:32;12.50;85.40
69626;DHT22;56847;51.984;5.088;2022-12-20T10:44:03;12.50;85.40
69626;DHT22;56847;51.984;5.088;2022-12-20T10:49:33;12.60;85.40
69626;DHT22;56847;51.984;5.088;2022-12-20T10:52:12;12.60;85.50
69626;DHT22;56847;51.984;5.088;2022-12-20T10:54:41;12.70;85.50
69626;DHT22;56847;51.984;5.088;2022-12-20T10:57:18;12.70;85.50
69626;DHT22;56847;51.984;5.088;2022-12-20T11:00:01;12.70;85.30
69626;DHT22;56847;51.984;5.088;2022-12-20T11:07:55;12.70;85.00
69626;DHT22;56847;51.984;5.088;2022-12-20T11:10:43;12.70;84.90
69626;DHT22;56847;51.984;5.088;2022-12-20T11:13:23;12.70;85.10
69626;DHT22;56847;51.984;5.088;2022-12-20T11:15:54;12.70;85.10
69626;DHT22;56847;51.984;5.088;2022-12-20T11:18:30;12.70;85.30
69626;DHT22;56847;51.984;5.088;2022-12-20T11:21:18;12.70;85.30
69626;DHT22;56847;51.984;5.088;2022-12-20T11:27:14;12.70;85.40
69626;DHT22;56847;51.984;5.088;2022-12-20T11:30:01;12.70;85.40
69626;DHT22;56847;51.984;5.088;2022-12-20T11:43:58;12.80;85.40
69626;DHT22;56847;51.984;5.088;2022-12-20T11:46:56;12.80;85.50
69626;DHT22;56847;51.984;5.088;2022-12-20T11:49:51;12.80;85.40
69626;DHT22;56847;51.984;5.088;2022-12-20T11:52:47;12.80;85.50
69626;DHT22;56847;51.984;5.088;2022-12-20T11:55:25;12.70;85.30
69626;DHT22;56847;51.984;5.088;2022-12-20T11:58:28;12.70;85.50
69626;DHT22;56847;51.984;5.088;2022-12-20T12:00:53;12.70;85.70
69626;DHT22;56847;51.984;5.088;2022-12-20T12:03:32;12.70;85.60
69626;DHT22;56847;51.984;5.088;2022-12-20T12:08:37;12.80;85.80
69626;DHT22;56847;51.984;5.088;2022-12-20T12:11:25;12.80;85.80
69626;DHT22;56847;51.984;5.088;2022-12-20T12:14:18;12.80;85.90
69626;DHT22;56847;51.984;5.088;2022-12-20T12:16:50;12.80;85.70
69626;DHT22;56847;51.984;5.088;2022-12-20T12:19:20;12.80;85.90
69626;DHT22;56847;51.984;5.088;2022-12-20T12:21:55;12.80;85.90
69626;DHT22;56847;51.984;5.088;2022-12-20T12:24:32;12.80;86.00
69626;DHT22;56847;51.984;5.088;2022-12-20T12:27:01;12.80;86.00
69626;DHT22;56847;51.984;5.088;2022-12-20T12:29:29;12.80;85.90
69626;DHT22;56847;51.984;5.088;2022-12-20T12:32:26;12.80;86.00
69626;DHT22;56847;51.984;5.088;2022-12-20T12:38:31;12.80;86.00
69626;DHT22;56847;51.984;5.088;2022-12-20T12:43:53;12.80;86.10
69626;DHT22;56847;51.984;5.088;2022-12-20T12:46:29;12.80;86.20
69626;DHT22;56847;51.984;5.088;2022-12-20T12:49:00;12.80;86.10
69626;DHT22;56847;51.984;5.088;2022-12-20T12:51:31;12.80;86.10
69626;DHT22;56847;51.984;5.088;2022-12-20T12:54:39;12.80;86.10
69626;DHT22;56847;51.984;5.088;2022-12-20T12:57:13;12.80;86.00
69626;DHT22;56847;51.984;5.088;2022-12-20T12:59:45;12.80;86.00
69626;DHT22;56847;51.984;5.088;2022-12-20T13:04:54;12.80;86.10
69626;DHT22;56847;51.984;5.088;2022-12-20T13:09:59;12.80;86.10
69626;DHT22;56847;51.984;5.088;2022-12-20T13:20:33;12.80;86.40
69626;DHT22;56847;51.984;5.088;2022-12-20T13:23:13;12.80;86.30
69626;DHT22;56847;51.984;5.088;2022-12-20T13:33:37;12.80;86.20
69626;DHT22;56847;51.984;5.088;2022-12-20T13:42:05;12.90;86.50
69626;DHT22;56847;51.984;5.088;2022-12-20T13:44:40;12.80;86.40
69626;DHT22;56847;51.984;5.088;2022-12-20T13:49:51;12.90;86.40
69626;DHT22;56847;51.984;5.088;2022-12-20T13:52:31;12.90;86.50
69626;DHT22;56847;51.984;5.088;2022-12-20T13:55:06;12.90;86.40
69626;DHT22;56847;51.984;5.088;2022-12-20T13:57:43;12.90;86.50
69626;DHT22;56847;51.984;5.088;2022-12-20T14:00:21;12.90;86.40
69626;DHT22;56847;51.984;5.088;2022-12-20T14:02:52;12.90;86.50
69626;DHT22;56847;51.984;5.088;2022-12-20T14:05:31;12.90;86.40
69626;DHT22;56847;51.984;5.088;2022-12-20T14:08:01;12.90;86.40
69626;DHT22;56847;51.984;5.088;2022-12-20T14:10:31;12.90;86.40
69626;DHT22;56847;51.984;5.088;2022-12-20T14:12:58;12.90;86.40
69626;DHT22;56847;51.984;5.088;2022-12-20T14:15:33;12.90;86.30
69626;DHT22;56847;51.984;5.088;2022-12-20T14:18:20;12.90;86.20
69626;DHT22;56847;51.984;5.088;2022-12-20T14:20:52;12.90;86.20
69626;DHT22;56847;51.984;5.088;2022-12-20T14:23:23;12.90;86.20
69626;DHT22;56847;51.984;5.088;2022-12-20T14:25:57;12.90;86.20
69626;DHT22;56847;51.984;5.088;2022-12-20T14:30:58;12.90;86.30
69626;DHT22;56847;51.984;5.088;2022-12-20T14:33:34;12.90;86.10
69626;DHT22;56847;51.984;5.088;2022-12-20T14:36:18;12.90;86.10
69626;DHT22;56847;51.984;5.088;2022-12-20T14:38:50;12.90;86.10
69626;DHT22;56847;51.984;5.088;2022-12-20T14:41:37;12.90;86.10
69626;DHT22;56847;51.984;5.088;2022-12-20T14:44:20;12.90;86.10
69626;DHT22;56847;51.984;5.088;2022-12-20T14:46:53;12.90;86.10
69626;DHT22;56847;51.984;5.088;2022-12-20T14:49:29;12.80;86.00
69626;DHT22;56847;51.984;5.088;2022-12-20T14:52:16;12.80;86.10
69626;DHT22;56847;51.984;5.088;2022-12-20T15:08:31;12.80;86.00
69626;DHT22;56847;51.984;5.088;2022-12-20T15:13:42;12.80;86.10
69626;DHT22;56847;51.984;5.088;2022-12-20T15:16:22;12.80;86.00
69626;DHT22;56847;51.984;5.088;2022-12-20T15:18:56;12.80;86.10
69626;DHT22;56847;51.984;5.088;2022-12-20T15:21:38;12.80;85.90
69626;DHT22;56847;51.984;5.088;2022-12-20T15:24:14;12.80;85.90
69626;DHT22;56847;51.984;5.088;2022-12-20T15:26:45;12.80;85.90
69626;DHT22;56847;51.984;5.088;2022-12-20T15:29:20;12.70;85.90
69626;DHT22;56847;51.984;5.088;2022-12-20T15:31:48;12.70;86.10
69626;DHT22;56847;51.984;5.088;2022-12-20T15:34:29;12.70;86.20
69626;DHT22;56847;51.984;5.088;2022-12-20T15:36:58;12.80;85.90
69626;DHT22;56847;51.984;5.088;2022-12-20T15:39:26;12.70;86.00
69626;DHT22;56847;51.984;5.088;2022-12-20T15:41:53;12.70;85.90
69626;DHT22;56847;51.984;5.088;2022-12-20T15:44:23;12.70;86.00
69626;DHT22;56847;51.984;5.088;2022-12-20T15:46:51;12.70;85.90
69626;DHT22;56847;51.984;5.088;2022-12-20T15:49:20;12.70;86.00
69626;DHT22;56847;51.984;5.088;2022-12-20T15:51:49;12.70;86.00
69626;DHT22;56847;51.984;5.088;2022-12-20T15:54:24;12.70;86.00
69626;DHT22;56847;51.984;5.088;2022-12-20T15:56:54;12.70;86.00
69626;DHT22;56847;51.984;5.088;2022-12-20T15:59:21;12.70;86.10
69626;DHT22;56847;51.984;5.088;2022-12-20T16:02:24;12.70;86.10
69626;DHT22;56847;51.984;5.088;2022-12-20T16:04:52;12.70;86.20
69626;DHT22;56847;51.984;5.088;2022-12-20T16:07:20;12.60;86.20
69626;DHT22;56847;51.984;5.088;2022-12-20T16:09:47;12.70;86.20
69626;DHT22;56847;51.984;5.088;2022-12-20T16:12:22;12.60;86.20
69626;DHT22;56847;51.984;5.088;2022-12-20T16:14:49;12.60;86.20
69626;DHT22;56847;51.984;5.088;2022-12-20T16:17:17;12.60;86.30
69626;DHT22;56847;51.984;5.088;2022-12-20T16:19:44;12.60;86.30
69626;DHT22;56847;51.984;5.088;2022-12-20T16:22:18;12.60;86.40
69626;DHT22;56847;51.984;5.088;2022-12-20T16:24:46;12.60;86.30
69626;DHT22;56847;51.984;5.088;2022-12-20T16:27:13;12.60;86.20
69626;DHT22;56847;51.984;5.088;2022-12-20T16:29:40;12.60;86.30
69626;DHT22;56847;51.984;5.088;2022-12-20T16:32:18;12.60;86.20
69626;DHT22;56847;51.984;5.088;2022-12-20T16:34:47;12.60;86.30
69626;DHT22;56847;51.984;5.088;2022-12-20T16:37:15;12.60;86.40
69626;DHT22;56847;51.984;5.088;2022-12-20T16:39:42;12.60;86.40
69626;DHT22;56847;51.984;5.088;2022-12-20T16:42:17;12.60;86.50
69626;DHT22;56847;51.984;5.088;2022-12-20T16:44:44;12.60;86.50
69626;DHT22;56847;51.984;5.088;2022-12-20T16:47:13;12.60;86.40
69626;DHT22;56847;51.984;5.088;2022-12-20T16:49:41;12.60;86.40
69626;DHT22;56847;51.984;5.088;2022-12-20T16:52:18;12.60;86.50
69626;DHT22;56847;51.984;5.088;2022-12-20T16:54:45;12.50;86.40
69626;DHT22;56847;51.984;5.088;2022-12-20T16:57:12;12.50;86.50
69626;DHT22;56847;51.984;5.088;2022-12-20T16:59:39;12.50;86.60
69626;DHT22;56847;51.984;5.088;2022-12-20T17:02:23;12.60;86.60
69626;DHT22;56847;51.984;5.088;2022-12-20T17:04:51;12.60;86.60
69626;DHT22;56847;51.984;5.088;2022-12-20T17:07:19;12.60;86.80
69626;DHT22;56847;51.984;5.088;2022-12-20T17:09:46;12.60;86.60
69626;DHT22;56847;51.984;5.088;2022-12-20T17:12:30;12.60;86.60
69626;DHT22;56847;51.984;5.088;2022-12-20T17:14:57;12.60;86.80
69626;DHT22;56847;51.984;5.088;2022-12-20T17:17:24;12.60;86.80
69626;DHT22;56847;51.984;5.088;2022-12-20T17:19:51;12.60;86.90
69626;DHT22;56847;51.984;5.088;2022-12-20T17:22:18;12.60;86.80
69626;DHT22;56847;51.984;5.088;2022-12-20T17:25:02;12.60;87.00
69626;DHT22;56847;51.984;5.088;2022-12-20T17:27:29;12.60;86.90
69626;DHT22;56847;51.984;5.088;2022-12-20T17:29:56;12.60;86.90
69626;DHT22;56847;51.984;5.088;2022-12-20T17:32:27;12.60;86.90
69626;DHT22;56847;51.984;5.088;2022-12-20T17:34:53;12.60;87.10
69626;DHT22;56847;51.984;5.088;2022-12-20T17:37:21;12.60;86.90
69626;DHT22;56847;51.984;5.088;2022-12-20T17:39:48;12.60;87.00
69626;DHT22;56847;51.984;5.088;2022-12-20T17:42:15;12.60;86.90
69626;DHT22;56847;51.984;5.088;2022-12-20T17:44:42;12.60;86.90
69626;DHT22;56847;51.984;5.088;2022-12-20T17:47:12;12.60;86.90
69626;DHT22;56847;51.984;5.088;2022-12-20T17:49:38;12.60;87.10
69626;DHT22;56847;51.984;5.088;2022-12-20T17:52:12;12.60;86.80
69626;DHT22;56847;51.984;5.088;2022-12-20T17:54:39;12.60;86.60
69626;DHT22;56847;51.984;5.088;2022-12-20T17:57:13;12.60;86.60
69626;DHT22;56847;51.984;5.088;2022-12-20T17:59:41;12.60;86.80
69626;DHT22;56847;51.984;5.088;2022-12-20T18:02:23;12.60;86.70
69626;DHT22;56847;51.984;5.088;2022-12-20T18:04:51;12.50;86.80